Time;durP1;ratioP1;P1;durP2;ratioP2;P2;SDS_P1;SDS_P2;PMS_P1;PMS_P2;Temp;Humidity;BMP_temperature;BMP_pressure;BME280_temperature;BME280_humidity;BME280_pressure;Samples;Min_cycle;Max_cycle;Signal;HPM_P1;HPM_P2
2021/07/01 00:09:28;;;;;;;9.30;5.30;;;12.90;99.90;;;;;;20918025;28;20052;-85
2021/07/01 00:19:29;;;;;;;12.00;5.37;;;12.90;99.90;;;;;;20894156;28;20040;-85
2021/07/01 00:29:30;;;;;;;11.37;5.83;;;12.90;99.90;;;;;;20912104;28;20035;-85
2021/07/01 00:39:30;;;;;;;7.47;4.73;;;12.90;99.90;;;;;;20929903;28;20040;-85
2021/07/01 00:49:31;;;;;;;7.67;4.50;;;12.80;99.90;;;;;;20908541;28;20044;-85
2021/07/01 00:59:33;;;;;;;5.40;3.90;;;12.80;99.90;;;;;;20904782;28;20025;-84
2021/07/01 01:09:34;;;;;;;6.88;4.05;;;12.80;99.90;;;;;;20887968;28;20041;-87
2021/07/01 01:19:35;;;;;;;5.97;3.53;;;12.80;99.90;;;;;;20887157;28;20037;-83
2021/07/01 01:29:35;;;;;;;7.60;4.37;;;12.80;99.90;;;;;;20919448;28;20031;-83
2021/07/01 01:39:37;;;;;;;7.00;3.97;;;12.80;99.90;;;;;;20900252;28;20037;-85
2021/07/01 01:49:39;;;;;;;7.35;4.43;;;12.80;99.90;;;;;;20883092;28;20094;-82
2021/07/01 01:59:40;;;;;;;7.63;4.20;;;12.80;99.90;;;;;;20881481;28;20397;-82
2021/07/01 02:10:01;;;;;;;6.70;4.20;;;12.80;99.90;;;;;;20899305;28;20048;-82
2021/07/01 02:20:09;;;;;;;7.35;3.17;;;12.90;99.90;;;;;;20881911;28;20090;-82
2021/07/01 02:30:16;;;;;;;5.38;3.55;;;12.80;99.90;;;;;;20881285;28;20032;-82
2021/07/01 02:40:17;;;;;;;6.22;4.05;;;12.70;99.90;;;;;;20880272;28;20032;-82
2021/07/01 02:50:32;;;;;;;8.63;4.22;;;12.70;99.90;;;;;;20883601;28;20037;-82
2021/07/01 03:00:33;;;;;;;10.95;5.72;;;12.80;99.90;;;;;;20895522;28;20158;-82
2021/07/01 03:10:35;;;;;;;17.05;5.80;;;12.70;99.90;;;;;;20879109;28;20032;-84
2021/07/01 03:20:38;;;;;;;12.38;6.22;;;12.80;99.90;;;;;;20885095;28;20052;-84
2021/07/01 03:30:59;;;;;;;12.95;6.50;;;12.80;99.90;;;;;;20909726;28;20159;-83
2021/07/01 03:41:00;;;;;;;13.90;6.80;;;12.90;99.90;;;;;;20876805;28;20510;-82
2021/07/01 03:51:03;;;;;;;15.70;7.63;;;12.90;99.90;;;;;;20879116;28;20131;-83
2021/07/01 04:01:14;;;;;;;11.38;6.18;;;12.90;99.90;;;;;;20894940;28;20036;-83
2021/07/01 04:11:15;;;;;;;11.80;5.57;;;13.10;99.90;;;;;;20910356;28;20052;-83
2021/07/01 04:21:16;;;;;;;8.77;5.57;;;13.20;99.90;;;;;;20892141;28;20119;-82
2021/07/01 04:31:36;;;;;;;9.55;5.10;;;13.10;99.90;;;;;;20912747;28;20037;-84
2021/07/01 04:41:38;;;;;;;9.05;5.10;;;13.20;99.90;;;;;;20907477;28;20123;-82
2021/07/01 04:51:39;;;;;;;10.70;5.80;;;13.20;99.90;;;;;;20890613;28;20130;-84
2021/07/01 05:02:03;;;;;;;9.27;4.03;;;13.40;99.90;;;;;;20895452;28;20044;-83
2021/07/01 05:12:24;;;;;;;10.13;3.97;;;13.60;99.90;;;;;;20908368;28;20037;-83
2021/07/01 05:22:26;;;;;;;6.70;4.40;;;13.80;99.90;;;;;;20889981;28;20029;-81
2021/07/01 05:32:46;;;;;;;10.20;4.30;;;13.80;99.90;;;;;;20924117;28;20037;-82
2021/07/01 05:42:50;;;;;;;10.93;4.55;;;13.60;99.90;;;;;;20889145;28;20036;-81
2021/07/01 05:53:05;;;;;;;7.90;4.30;;;13.60;99.90;;;;;;20900394;28;20139;-82
2021/07/01 06:03:06;;;;;;;9.13;5.43;;;13.60;99.90;;;;;;20884716;28;20032;-80
2021/07/01 06:13:09;;;;;;;8.90;4.67;;;13.70;99.90;;;;;;20899130;28;20482;-81
2021/07/01 06:23:11;;;;;;;9.00;5.22;;;13.70;99.90;;;;;;20920426;28;20040;-82
2021/07/01 06:33:13;;;;;;;7.00;4.40;;;13.70;99.90;;;;;;20898890;28;20114;-81
2021/07/01 06:43:18;;;;;;;9.77;3.80;;;13.60;99.90;;;;;;20901389;28;20413;-80
2021/07/01 06:53:40;;;;;;;7.72;3.70;;;13.60;99.90;;;;;;20915677;28;20041;-84
2021/07/01 07:04:04;;;;;;;9.30;4.55;;;13.70;99.90;;;;;;20900588;28;20029;-84
2021/07/01 07:14:06;;;;;;;11.97;5.50;;;13.90;99.90;;;;;;20895802;28;20037;-82
2021/07/01 07:24:08;;;;;;;8.83;5.37;;;14.10;99.90;;;;;;20892053;28;20033;-81
2021/07/01 07:34:09;;;;;;;11.90;4.60;;;14.30;99.90;;;;;;20892592;28;20036;-83
2021/07/01 07:44:11;;;;;;;9.43;4.07;;;14.80;99.90;;;;;;20893868;28;20116;-82
2021/07/01 07:54:13;;;;;;;6.37;4.20;;;15.10;99.90;;;;;;20892928;28;20468;-83
2021/07/01 08:04:17;;;;;;;9.07;4.53;;;15.30;99.90;;;;;;20894992;28;20451;-83
2021/07/01 08:14:20;;;;;;;8.65;4.00;;;16.00;99.90;;;;;;20895079;28;20032;-83
2021/07/01 08:24:23;;;;;;;5.38;4.10;;;16.20;99.90;;;;;;20921006;28;20036;-82
2021/07/01 08:34:24;;;;;;;7.32;4.22;;;16.80;99.90;;;;;;20921053;28;20449;-82
2021/07/01 08:44:32;;;;;;;9.10;4.82;;;16.70;99.90;;;;;;20908145;28;20040;-83
2021/07/01 08:54:35;;;;;;;11.50;4.63;;;16.90;99.90;;;;;;20909032;28;20037;-85
2021/07/01 09:04:57;;;;;;;9.88;5.47;;;16.70;99.90;;;;;;20892363;28;20421;-82
2021/07/01 09:15:05;;;;;;;9.53;4.93;;;16.50;99.90;;;;;;20889803;28;20167;-83
2021/07/01 09:25:06;;;;;;;9.02;5.35;;;16.90;99.90;;;;;;20905503;28;20090;-83
2021/07/01 09:35:08;;;;;;;9.37;5.87;;;17.20;99.90;;;;;;20887878;28;20425;-81
2021/07/01 09:45:11;;;;;;;12.70;6.65;;;17.90;99.90;;;;;;20887793;28;20052;-83
2021/07/01 09:55:13;;;;;;;8.38;5.57;;;17.20;99.90;;;;;;20886657;28;20032;-83
2021/07/01 10:05:28;;;;;;;10.07;5.03;;;18.10;99.90;;;;;;20884762;28;20036;-82
2021/07/01 10:15:31;;;;;;;5.20;4.30;;;18.70;99.90;;;;;;20901693;28;20044;-82
2021/07/01 10:25:33;;;;;;;6.45;4.50;;;19.10;99.90;;;;;;20901929;28;20055;-83
2021/07/01 10:35:35;;;;;;;11.18;4.60;;;18.50;99.90;;;;;;20900787;28;20075;-84
2021/07/01 10:45:36;;;;;;;6.05;3.90;;;19.80;99.90;;;;;;20882606;28;20489;-82
2021/07/01 10:55:41;;;;;;;5.43;3.90;;;20.80;99.90;;;;;;20883871;28;20025;-80
2021/07/01 11:05:42;;;;;;;5.75;4.22;;;19.90;99.90;;;;;;20900969;28;20033;-82
2021/07/01 11:16:15;;;;;;;5.50;4.03;;;20.40;99.90;;;;;;20880635;28;20033;-81
2021/07/01 11:26:27;;;;;;;;;;;20.70;99.90;;;;;;20898537;28;20502;-82
2021/07/01 11:36:28;;;;;;;6.03;2.97;;;21.30;99.90;;;;;;20917782;28;19920;-81
2021/07/01 11:46:29;;;;;;;3.78;3.03;;;21.60;99.90;;;;;;20897647;28;20044;-82
2021/07/01 11:56:53;;;;;;;3.10;2.70;;;21.30;99.90;;;;;;20896423;28;20076;-79
2021/07/01 12:06:55;;;;;;;3.83;2.70;;;21.90;99.90;;;;;;20894476;28;20036;-82
2021/07/01 12:16:56;;;;;;;6.55;3.53;;;20.70;99.90;;;;;;20887224;28;20078;-80
2021/07/01 12:26:57;;;;;;;4.40;3.00;;;19.70;99.90;;;;;;20912461;28;20025;-81
2021/07/01 12:37:03;;;;;;;5.37;3.10;;;19.90;99.90;;;;;;20910160;28;20068;-83
2021/07/01 12:47:26;;;;;;;9.55;3.30;;;19.60;99.90;;;;;;20931293;28;20120;-84
2021/07/01 12:57:28;;;;;;;4.78;2.88;;;20.10;99.90;;;;;;20899784;28;20075;-82
2021/07/01 13:07:33;;;;;;;3.17;2.70;;;20.90;99.90;;;;;;20909283;28;20029;-82
2021/07/01 13:17:35;;;;;;;4.32;2.40;;;22.20;99.90;;;;;;20925557;28;20056;-82
2021/07/01 13:27:57;;;;;;;4.00;2.55;;;21.80;99.90;;;;;;20908733;28;20036;-82
2021/07/01 13:37:58;;;;;;;9.95;2.80;;;21.70;99.90;;;;;;20907803;28;20056;-83
2021/07/01 13:48:20;;;;;;;10.67;3.10;;;21.70;99.90;;;;;;20886358;28;20033;-81
2021/07/01 13:58:24;;;;;;;5.43;2.78;;;20.70;99.90;;;;;;20888212;28;20075;-81
2021/07/01 14:08:28;;;;;;;6.15;3.42;;;20.60;99.90;;;;;;20869492;28;20035;-82
2021/07/01 14:18:29;;;;;;;4.93;3.08;;;21.00;99.90;;;;;;20873692;28;20058;-81
2021/07/01 14:28:32;;;;;;;4.70;3.00;;;20.70;99.90;;;;;;20856702;28;20057;-83
2021/07/01 14:38:34;;;;;;;;;;;20.90;99.90;;;;;;20864155;28;20521;-82
2021/07/01 14:48:35;;;;;;;5.70;3.27;;;20.20;99.90;;;;;;20863695;28;19921;-81
2021/07/01 14:58:50;;;;;;;5.73;3.33;;;20.30;99.90;;;;;;20895657;28;20032;-82
2021/07/01 15:09:17;;;;;;;6.53;3.40;;;20.60;99.90;;;;;;20893712;28;20068;-84
2021/07/01 15:19:18;;;;;;;4.82;3.08;;;21.00;99.90;;;;;;20874225;28;20491;-83
2021/07/01 15:29:19;;;;;;;4.03;2.97;;;20.90;99.90;;;;;;20875567;28;20081;-82
2021/07/01 15:39:20;;;;;;;10.17;3.30;;;20.80;99.90;;;;;;20840788;28;20029;-81
2021/07/01 15:49:21;;;;;;;;;;;20.80;99.90;;;;;;20888464;28;20099;-84
2021/07/01 15:59:24;;;;;;;3.57;2.60;;;20.70;99.90;;;;;;20859113;28;19916;-83
2021/07/01 16:09:25;;;;;;;8.30;3.20;;;20.70;99.90;;;;;;20868027;28;20379;-83
2021/07/01 16:19:26;;;;;;;4.37;3.20;;;20.20;99.90;;;;;;20869173;28;20550;-83
2021/07/01 16:29:28;;;;;;;5.00;3.70;;;20.50;99.90;;;;;;20865871;28;20162;-84
2021/07/01 16:39:30;;;;;;;6.10;4.47;;;20.20;99.90;;;;;;20883667;28;20513;-85
2021/07/01 16:49:30;;;;;;;;;;;20.10;99.90;;;;;;20864771;28;20402;-85
2021/07/01 16:59:32;;;;;;;5.22;3.70;;;20.30;99.90;;;;;;20852340;28;19939;-84
2021/07/01 17:09:35;;;;;;;7.82;3.88;;;20.20;99.90;;;;;;20860825;28;20032;-85
2021/07/01 17:19:42;;;;;;;4.85;3.72;;;20.00;99.90;;;;;;20873278;28;20397;-84
2021/07/01 17:29:43;;;;;;;6.38;4.05;;;20.00;99.90;;;;;;20888993;28;20044;-84
2021/07/01 17:39:44;;;;;;;5.30;3.88;;;20.30;99.90;;;;;;20859115;28;20175;-83
2021/07/01 17:49:45;;;;;;;6.53;3.53;;;20.40;99.90;;;;;;20864722;28;20045;-85
2021/07/01 17:59:46;;;;;;;6.07;3.53;;;20.40;99.90;;;;;;20860056;28;20047;-82
2021/07/01 18:09:47;;;;;;;6.40;3.63;;;20.80;99.90;;;;;;20871641;28;20063;-85
2021/07/01 18:19:48;;;;;;;6.20;3.50;;;21.80;99.90;;;;;;20869167;28;20287;-84
2021/07/01 18:29:49;;;;;;;8.20;4.23;;;22.30;99.90;;;;;;20851116;28;20028;-85
2021/07/01 18:39:51;;;;;;;6.30;3.93;;;22.90;99.90;;;;;;20870796;28;20059;-84
2021/07/01 18:49:52;;;;;;;5.82;4.20;;;20.30;99.90;;;;;;20881580;28;20040;-83
2021/07/01 18:59:53;;;;;;;9.23;5.03;;;19.00;99.90;;;;;;20872756;28;20395;-84
2021/07/01 19:09:54;;;;;;;13.67;4.40;;;18.20;99.90;;;;;;20864817;28;20033;-83
2021/07/01 19:19:55;;;;;;;9.17;5.37;;;17.50;99.90;;;;;;20883144;28;20047;-84
2021/07/01 19:29:56;;;;;;;10.27;6.23;;;16.90;99.90;;;;;;20897533;28;20037;-83
2021/07/01 19:39:57;;;;;;;10.87;6.57;;;16.70;99.90;;;;;;20893916;28;20068;-84
2021/07/01 19:49:59;;;;;;;11.35;6.90;;;16.30;99.90;;;;;;20881418;28;20051;-85
2021/07/01 20:00:01;;;;;;;13.67;5.33;;;16.00;99.90;;;;;;20900251;28;20123;-83
2021/07/01 20:10:04;;;;;;;8.57;4.88;;;15.60;99.90;;;;;;20875596;28;20032;-83
2021/07/01 20:20:05;;;;;;;8.70;5.68;;;15.00;99.90;;;;;;20893601;28;20037;-84
2021/07/01 20:30:07;;;;;;;7.70;5.20;;;15.10;99.90;;;;;;20899789;28;20075;-84
2021/07/01 20:40:09;;;;;;;17.75;5.97;;;15.10;99.90;;;;;;20910386;28;20396;-83
2021/07/01 20:50:10;;;;;;;;;;;14.60;99.90;;;;;;20869110;28;20041;-84
2021/07/01 21:00:22;;;;;;;17.15;6.40;;;14.50;99.90;;;;;;20877510;28;19916;-86
2021/07/01 21:10:24;;;;;;;10.83;6.33;;;14.40;99.90;;;;;;20892141;28;20039;-84
2021/07/01 21:20:27;;;;;;;16.35;6.68;;;14.50;99.90;;;;;;20894589;28;20120;-84
2021/07/01 21:30:29;;;;;;;10.48;6.53;;;14.20;99.90;;;;;;20912799;28;20068;-84
2021/07/01 21:40:30;;;;;;;;;;;14.20;99.90;;;;;;20912331;28;20040;-84
2021/07/01 21:50:33;;;;;;;14.57;6.30;;;14.20;99.90;;;;;;20892877;28;19912;-85
2021/07/01 22:00:34;;;;;;;10.52;6.53;;;14.10;99.90;;;;;;20890977;28;20132;-86
2021/07/01 22:10:36;;;;;;;10.57;5.77;;;14.10;99.90;;;;;;20906863;28;20033;-81
2021/07/01 23:51:38;;;;;;;11.90;6.95;;;13.70;99.90;;;;;;20915363;28;20041;-83
